Time;durP1;ratioP1;P1;durP2;ratioP2;P2;SDS_P1;SDS_P2;PMS_P1;PMS_P2;Temp;Humidity;BMP_temperature;BMP_pressure;BME280_temperature;BME280_humidity;BME280_pressure;Samples;Min_cycle;Max_cycle;Signal;HPM_P1;HPM_P2
2021/11/22 00:01:07;;;;;;;3.20;2.17;;;;;;;3.69;100.00;101117.06;5000981;28;20061;-80
2021/11/22 00:03:34;;;;;;;5.45;2.42;;;;;;;3.60;100.00;101109.03;4982788;28;21654;-80
2021/11/22 00:06:03;;;;;;;4.47;1.80;;;;;;;3.50;100.00;101113.06;4988633;28;20041;-80
2021/11/22 00:08:33;;;;;;;4.55;2.10;;;;;;;3.44;100.00;101129.31;4992099;28;20526;-81
2021/11/22 00:11:02;;;;;;;3.92;2.75;;;;;;;3.34;100.00;101129.00;5002636;28;20136;-79
2021/11/22 00:13:34;;;;;;;7.15;3.10;;;;;;;3.24;100.00;101128.75;4990407;28;20033;-81
2021/11/22 00:16:01;;;;;;;2.17;1.90;;;;;;;3.14;100.00;101135.38;4986854;28;20045;-80
2021/11/22 00:18:28;;;;;;;2.90;1.65;;;;;;;3.14;100.00;101137.97;4986987;28;20053;-81
2021/11/22 00:20:54;;;;;;;5.15;2.25;;;;;;;3.11;100.00;101137.84;4990034;28;20041;-79
2021/11/22 00:23:21;;;;;;;2.40;2.30;;;;;;;3.09;100.00;101149.88;4987635;28;20061;-85
2021/11/22 00:25:48;;;;;;;4.10;2.53;;;;;;;3.10;100.00;101151.66;4978707;28;20132;-83
2021/11/22 00:28:15;;;;;;;7.82;2.60;;;;;;;3.07;100.00;101150.66;4995144;28;20500;-82
2021/11/22 00:30:42;;;;;;;3.90;2.63;;;;;;;3.02;100.00;101155.69;4986453;28;20053;-86
2021/11/22 00:33:10;;;;;;;4.20;2.63;;;;;;;3.01;100.00;101163.41;4972788;28;20041;-82
2021/11/22 00:35:37;;;;;;;5.05;2.97;;;;;;;3.00;100.00;101162.53;4984574;28;20078;-81
2021/11/22 00:38:08;;;;;;;7.63;2.97;;;;;;;3.01;100.00;101169.44;4974367;28;20489;-80
2021/11/22 00:40:37;;;;;;;3.40;3.10;;;;;;;3.04;100.00;101179.91;4992389;28;20053;-80
2021/11/22 00:43:06;;;;;;;4.90;3.17;;;;;;;3.08;100.00;101174.00;4969068;28;20792;-85
2021/11/22 00:45:35;;;;;;;4.57;2.92;;;;;;;3.12;100.00;101173.25;4984977;28;20157;-82
2021/11/22 00:48:02;;;;;;;8.25;2.90;;;;;;;3.14;100.00;101179.34;4981543;28;20626;-84
2021/11/22 00:50:30;;;;;;;4.63;3.50;;;;;;;3.15;100.00;101187.97;4975431;28;22977;-82
2021/11/22 00:52:58;;;;;;;8.13;3.50;;;;;;;3.12;100.00;101182.72;4986157;28;20120;-82
2021/11/22 00:55:25;;;;;;;7.50;3.45;;;;;;;3.04;100.00;101197.13;4982911;28;20125;-83
2021/11/22 00:57:51;;;;;;;4.68;3.50;;;;;;;3.03;100.00;101203.16;4973369;28;20046;-80
2021/11/22 01:00:21;;;;;;;6.55;3.55;;;;;;;3.07;100.00;101202.41;4984233;28;20147;-83
2021/11/22 01:02:47;;;;;;;5.47;3.70;;;;;;;3.07;100.00;101203.25;4956584;28;20049;-85
2021/11/22 01:05:15;;;;;;;4.10;3.50;;;;;;;3.09;100.00;101214.56;4985337;28;20551;-80
2021/11/22 01:07:42;;;;;;;4.45;3.20;;;;;;;3.17;100.00;101217.38;4984819;28;20050;-81
2021/11/22 01:10:09;;;;;;;19.90;5.60;;;;;;;3.25;100.00;101217.63;4970021;28;20054;-84
2021/11/22 01:12:36;;;;;;;5.03;3.08;;;;;;;3.33;100.00;101218.72;4973139;28;21629;-86
2021/11/22 01:15:09;;;;;;;5.00;3.65;;;;;;;3.43;100.00;101225.06;4976020;28;20136;-82
2021/11/22 01:17:37;;;;;;;3.95;3.13;;;;;;;3.47;100.00;101227.75;5005812;28;20042;-81
2021/11/22 01:20:09;;;;;;;9.00;3.88;;;;;;;3.52;100.00;101233.09;4993162;28;20046;-80
2021/11/22 01:22:37;;;;;;;5.22;2.97;;;;;;;3.58;100.00;101230.66;5000599;28;20081;-83
2021/11/22 01:25:04;;;;;;;5.25;2.83;;;;;;;3.63;100.00;101234.25;4994956;28;20120;-80
2021/11/22 01:27:31;;;;;;;5.13;3.70;;;;;;;3.71;100.00;101241.38;4980524;28;20068;-83
2021/11/22 01:29:57;;;;;;;5.55;2.80;;;;;;;3.77;100.00;101233.78;4970264;28;20037;-80
2021/11/22 01:32:24;;;;;;;3.47;2.47;;;;;;;3.81;100.00;101245.97;4991723;28;20053;-84
2021/11/22 01:34:54;;;;;;;8.18;2.35;;;;;;;3.88;100.00;101250.47;4992921;28;20038;-88
2021/11/22 01:37:22;;;;;;;2.60;2.00;;;;;;;3.93;100.00;101251.50;4991075;28;20054;-82
2021/11/22 01:39:49;;;;;;;2.63;2.10;;;;;;;3.97;100.00;101247.28;4994470;28;20049;-84
2021/11/22 01:42:16;;;;;;;2.55;2.35;;;;;;;4.02;100.00;101252.59;4990449;28;20045;-80
2021/11/22 01:44:42;;;;;;;6.30;3.00;;;;;;;4.04;100.00;101258.69;4997196;28;20533;-84
2021/11/22 01:47:13;;;;;;;3.25;1.50;;;;;;;4.07;100.00;101263.97;4997411;28;20044;-85
2021/11/22 01:49:40;;;;;;;2.70;2.33;;;;;;;4.12;100.00;101275.34;5002816;28;20049;-80
2021/11/22 01:52:08;;;;;;;2.28;1.85;;;;;;;4.13;100.00;101274.47;4996229;28;20052;-79
2021/11/22 01:54:35;;;;;;;5.35;2.47;;;;;;;4.15;100.00;101275.41;4977521;28;20820;-84
2021/11/22 01:57:01;;;;;;;1.15;1.05;;;;;;;4.20;100.00;101281.59;4980423;28;20046;-83
2021/11/22 01:59:27;;;;;;;1.65;1.52;;;;;;;4.24;100.00;101282.56;4997259;28;20041;-79
2021/11/22 02:01:58;;;;;;;4.53;1.90;;;;;;;4.26;100.00;101286.06;4975490;28;20045;-85
2021/11/22 02:04:24;;;;;;;3.25;1.58;;;;;;;4.27;100.00;101285.22;5015143;28;20044;-80
2021/11/22 02:06:51;;;;;;;2.28;2.08;;;;;;;4.25;100.00;101298.16;4992825;28;20044;-84
2021/11/22 02:09:18;;;;;;;2.17;1.65;;;;;;;4.25;100.00;101298.16;4992217;28;20049;-80
2021/11/22 02:11:44;;;;;;;3.08;1.95;;;;;;;4.24;100.00;101300.72;4998078;28;20950;-82
2021/11/22 02:14:11;;;;;;;2.38;1.60;;;;;;;4.24;100.00;101298.97;5000724;28;20042;-86
2021/11/22 02:16:37;;;;;;;3.13;1.55;;;;;;;4.24;100.00;101311.06;5009068;28;20046;-87
2021/11/22 02:19:05;;;;;;;2.30;1.52;;;;;;;4.24;100.00;101305.91;5005180;28;20091;-84
2021/11/22 02:21:32;;;;;;;5.45;2.58;;;;;;;4.20;100.00;101315.28;5012450;28;20026;-84
2021/11/22 02:23:59;;;;;;;6.85;1.85;;;;;;;4.22;100.00;101316.19;4994021;28;20132;-87
2021/11/22 02:26:26;;;;;;;4.20;1.50;;;;;;;4.22;100.00;101317.91;5005229;28;21171;-85
2021/11/22 02:28:54;;;;;;;3.55;1.75;;;;;;;4.23;100.00;101325.72;5012145;28;20476;-88
2021/11/22 02:31:21;;;;;;;1.60;1.50;;;;;;;4.23;100.00;101322.28;5011083;28;20057;-82
2021/11/22 02:33:47;;;;;;;6.22;1.50;;;;;;;4.22;100.00;101323.09;4995956;28;20053;-80
2021/11/22 02:36:16;;;;;;;1.60;1.50;;;;;;;4.24;100.00;101329.22;4995254;28;20480;-83
2021/11/22 02:38:44;;;;;;;1.48;1.38;;;;;;;4.23;100.00;101340.41;4993342;28;20131;-81
2021/11/22 02:41:11;;;;;;;4.07;1.63;;;;;;;4.24;100.00;101343.03;4977136;28;20065;-80
2021/11/22 02:43:41;;;;;;;3.55;1.48;;;;;;;4.23;100.00;101343.00;5001114;28;20076;-86
2021/11/22 02:46:09;;;;;;;1.58;1.50;;;;;;;4.21;100.00;101345.56;4991568;28;20111;-80
2021/11/22 02:48:36;;;;;;;2.10;1.50;;;;;;;4.17;100.00;101348.88;4991981;28;20053;-85
2021/11/22 02:51:05;;;;;;;1.50;1.33;;;;;;;4.09;100.00;101350.38;4978207;28;21344;-80
2021/11/22 02:53:33;;;;;;;2.50;1.70;;;;;;;4.03;100.00;101368.31;4979683;28;20050;-79
2021/11/22 02:56:06;;;;;;;4.35;2.10;;;;;;;3.98;100.00;101366.47;4990085;28;20042;-79
2021/11/22 02:58:35;;;;;;;2.40;2.20;;;;;;;3.99;100.00;101364.78;4989605;28;20049;-84
2021/11/22 03:01:06;;;;;;;1.75;1.65;;;;;;;4.00;100.00;101373.44;4988822;28;21191;-84
2021/11/22 03:03:33;;;;;;;2.70;1.80;;;;;;;4.00;100.00;101376.00;4997481;28;20082;-81
2021/11/22 03:06:09;;;;;;;1.38;1.20;;;;;;;3.96;100.00;101377.63;4980930;28;20092;-84
2021/11/22 03:08:38;;;;;;;1.50;1.40;;;;;;;3.89;100.00;101380.88;4985886;28;20500;-84
2021/11/22 03:11:05;;;;;;;1.90;1.02;;;;;;;3.83;100.00;101378.09;4998389;28;20041;-79
2021/11/22 03:13:33;;;;;;;2.33;1.58;;;;;;;3.73;100.00;101392.47;4997763;28;20054;-80
2021/11/22 03:16:00;;;;;;;2.15;1.83;;;;;;;3.61;100.00;101398.13;4997377;28;20144;-81
2021/11/22 03:18:27;;;;;;;3.33;1.20;;;;;;;3.47;100.00;101397.72;4990966;28;20046;-83
2021/11/22 03:20:54;;;;;;;2.15;1.83;;;;;;;3.35;100.00;101393.03;4992898;28;20056;-81
2021/11/22 03:23:21;;;;;;;2.00;1.90;;;;;;;3.30;100.00;101402.34;4981682;28;20827;-81
2021/11/22 03:25:48;;;;;;;2.17;1.90;;;;;;;3.29;100.00;101410.94;4978119;28;20124;-81
2021/11/22 03:28:16;;;;;;;5.18;1.95;;;;;;;3.29;100.00;101410.94;4982339;28;20215;-85
2021/11/22 03:30:43;;;;;;;1.70;1.55;;;;;;;3.25;100.00;101415.13;4986370;28;20042;-82
2021/11/22 03:33:10;;;;;;;1.77;1.65;;;;;;;3.21;100.00;101421.03;4991658;28;20062;-84
2021/11/22 03:35:37;;;;;;;3.28;2.08;;;;;;;3.17;100.00;101426.03;5005285;28;20042;-86
2021/11/22 03:38:05;;;;;;;3.10;2.60;;;;;;;3.09;100.00;101423.19;4998164;28;20716;-86
2021/11/22 03:40:32;;;;;;;9.90;2.80;;;;;;;3.00;100.00;101433.22;4997868;28;20052;-78
2021/11/22 03:43:12;;;;;;;2.92;2.03;;;;;;;2.87;100.00;101435.41;4981930;28;20046;-80
2021/11/22 03:45:43;;;;;;;5.28;2.10;;;;;;;2.70;100.00;101431.31;4995081;28;20685;-80
2021/11/22 03:48:12;;;;;;;2.38;1.73;;;;;;;2.57;100.00;101442.91;5006280;28;20061;-79
2021/11/22 03:50:39;;;;;;;2.88;2.20;;;;;;;2.47;100.00;101445.16;4990527;28;20061;-84
2021/11/22 03:53:07;;;;;;;3.53;2.33;;;;;;;2.37;100.00;101445.66;4992615;28;20045;-85
2021/11/22 03:55:33;;;;;;;6.10;2.17;;;;;;;2.30;100.00;101448.84;4983472;28;20382;-81
2021/11/22 03:58:00;;;;;;;4.03;2.60;;;;;;;2.24;100.00;101453.78;4990878;28;20054;-83
2021/11/22 04:00:27;;;;;;;4.55;2.00;;;;;;;2.15;100.00;101462.03;4995352;28;20096;-79
2021/11/22 04:02:55;;;;;;;2.33;2.00;;;;;;;2.08;100.00;101467.81;4989160;28;20141;-79
2021/11/22 04:05:22;;;;;;;2.65;1.85;;;;;;;2.03;100.00;101470.19;4989259;28;20057;-82
2021/11/22 04:07:49;;;;;;;3.85;2.38;;;;;;;1.96;100.00;101474.25;4974609;28;20401;-83
2021/11/22 04:10:17;;;;;;;3.58;3.05;;;;;;;1.90;100.00;101474.00;4993003;28;20443;-80
2021/11/22 04:12:43;;;;;;;2.70;2.50;;;;;;;1.87;100.00;101484.22;4978590;28;20060;-79
2021/11/22 04:15:10;;;;;;;3.92;2.47;;;;;;;1.81;100.00;101482.28;4986059;28;20042;-83
2021/11/22 04:17:36;;;;;;;2.60;1.80;;;;;;;1.77;100.00;101487.25;4986734;28;20665;-81
2021/11/22 04:20:05;;;;;;;2.05;1.88;;;;;;;1.72;100.00;101494.81;4986652;28;20100;-82
2021/11/22 04:22:31;;;;;;;4.57;2.05;;;;;;;1.68;100.00;101494.63;5002682;28;20049;-81
2021/11/22 04:24:58;;;;;;;5.13;1.73;;;;;;;1.63;100.00;101507.31;4995595;28;20644;-80
2021/11/22 04:27:25;;;;;;;4.05;2.13;;;;;;;1.58;100.00;101499.41;5004960;28;20116;-82
2021/11/22 04:29:52;;;;;;;5.38;3.13;;;;;;;1.55;100.00;101509.59;4989001;28;20077;-85
2021/11/22 04:32:18;;;;;;;2.78;2.13;;;;;;;1.54;100.00;101514.69;5009049;28;20555;-81
2021/11/22 04:34:45;;;;;;;5.55;2.55;;;;;;;1.54;100.00;101514.69;4990492;28;20104;-85
2021/11/22 04:37:11;;;;;;;12.32;2.55;;;;;;;1.51;100.00;101520.59;4994353;28;20450;-79
2021/11/22 04:39:38;;;;;;;4.90;2.00;;;;;;;1.47;100.00;101519.59;4986477;28;20061;-82
2021/11/22 04:42:05;;;;;;;3.00;2.00;;;;;;;1.43;100.00;101532.28;4991879;28;20060;-79
2021/11/22 04:44:31;;;;;;;2.45;2.25;;;;;;;1.37;100.00;101527.75;4987231;28;20067;-81
2021/11/22 04:46:58;;;;;;;9.65;2.97;;;;;;;1.35;100.00;101529.38;4978204;28;20075;-82
2021/11/22 04:49:24;;;;;;;5.40;2.42;;;;;;;1.34;100.00;101522.47;4997266;28;20123;-81
2021/11/22 04:51:52;;;;;;;4.10;2.15;;;;;;;1.32;100.00;101526.69;4994689;28;20751;-83
2021/11/22 04:54:19;;;;;;;4.78;2.42;;;;;;;1.26;100.00;101524.72;4980606;28;20053;-85
2021/11/22 04:56:45;;;;;;;3.65;1.80;;;;;;;1.25;100.00;101528.13;4974605;28;20123;-81
2021/11/22 04:59:12;;;;;;;1.75;1.65;;;;;;;1.25;100.00;101538.44;4993589;28;20455;-81
2021/11/22 05:01:39;;;;;;;4.90;2.80;;;;;;;1.21;100.00;101549.41;4976851;28;20046;-86
2021/11/22 05:04:07;;;;;;;2.65;1.70;;;;;;;1.19;100.00;101551.06;5009152;28;20041;-78
2021/11/22 05:06:33;;;;;;;3.47;2.78;;;;;;;1.14;100.00;101553.44;4991047;28;20045;-81
2021/11/22 05:09:03;;;;;;;5.88;2.42;;;;;;;1.12;100.00;101560.22;4987017;28;20084;-82
2021/11/22 05:11:30;;;;;;;2.83;2.38;;;;;;;1.11;100.00;101568.78;5007884;28;20095;-79
2021/11/22 05:13:57;;;;;;;5.10;2.10;;;;;;;1.08;100.00;101567.75;4982511;28;20056;-80
2021/11/22 05:16:24;;;;;;;4.63;3.22;;;;;;;1.05;100.00;101565.03;4984465;28;20423;-86
2021/11/22 05:18:52;;;;;;;4.53;1.95;;;;;;;1.06;100.00;101571.97;4989393;28;20045;-82
2021/11/22 05:21:18;;;;;;;4.80;2.35;;;;;;;1.02;100.00;101568.38;4988750;28;20053;-84
2021/11/22 05:23:47;;;;;;;3.22;2.63;;;;;;;1.02;100.00;101577.78;4979120;28;20053;-81
2021/11/22 05:26:14;;;;;;;2.25;2.00;;;;;;;0.99;100.00;101578.53;5026495;28;20051;-84
2021/11/22 05:28:40;;;;;;;2.42;1.98;;;;;;;0.96;100.00;101575.81;4992955;28;20075;-81
2021/11/22 05:31:12;;;;;;;5.03;2.50;;;;;;;0.94;100.00;101590.31;4991623;28;20145;-86
2021/11/22 05:33:39;;;;;;;3.50;1.95;;;;;;;0.91;100.00;101587.63;4961322;28;20483;-79
2021/11/22 05:36:06;;;;;;;2.65;2.45;;;;;;;0.91;100.00;101597.94;4995760;28;20033;-82
2021/11/22 05:38:32;;;;;;;3.85;3.03;;;;;;;0.89;100.00;101597.00;4994199;28;20496;-78
2021/11/22 05:40:59;;;;;;;6.53;3.03;;;;;;;0.86;100.00;101602.91;4974479;28;20057;-80
2021/11/22 05:43:26;;;;;;;6.32;3.13;;;;;;;0.85;100.00;101605.38;4994465;28;20588;-80
2021/11/22 05:45:53;;;;;;;5.47;3.10;;;;;;;0.82;100.00;101612.19;4960575;28;20046;-82
2021/11/22 05:48:19;;;;;;;5.50;3.50;;;;;;;0.78;100.00;101606.78;4986038;28;20041;-84
2021/11/22 05:50:59;;;;;;;3.80;2.55;;;;;;;0.80;100.00;101613.78;4999074;28;20056;-87
2021/11/22 05:53:27;;;;;;;3.88;2.85;;;;;;;0.75;100.00;101623.00;4989011;28;20053;-78
2021/11/22 05:55:54;;;;;;;3.50;3.15;;;;;;;0.72;100.00;101624.53;4993312;28;20033;-84
2021/11/22 05:58:21;;;;;;;3.80;2.70;;;;;;;0.70;100.00;101631.34;4991272;28;20129;-82
2021/11/22 06:00:48;;;;;;;3.47;2.72;;;;;;;0.68;100.00;101632.94;4982536;28;20558;-86
2021/11/22 06:03:15;;;;;;;5.38;2.75;;;;;;;0.68;100.00;101643.25;5007640;28;20560;-87
2021/11/22 06:05:42;;;;;;;3.58;2.65;;;;;;;0.68;100.00;101645.81;5007130;28;20057;-86
2021/11/22 06:08:10;;;;;;;10.00;4.45;;;;;;;0.67;100.00;101642.38;5011960;28;20025;-89
2021/11/22 06:10:39;;;;;;;4.15;2.72;;;;;;;0.64;100.00;101648.28;5013420;28;20037;-87
2021/11/22 06:13:11;;;;;;;4.55;2.50;;;;;;;0.60;100.00;101648.94;4997983;28;20049;-88
2021/11/22 06:15:39;;;;;;;3.53;2.88;;;;;;;0.56;100.00;101646.13;5015097;28;20975;-82
2021/11/22 06:18:06;;;;;;;3.00;2.80;;;;;;;0.52;100.00;101654.53;5013509;28;20036;-81
2021/11/22 06:20:45;;;;;;;6.95;2.95;;;;;;;0.48;100.00;101650.91;5009943;28;20049;-79
2021/11/22 06:23:12;;;;;;;7.45;4.43;;;;;;;0.45;100.00;101664.53;4997531;28;20057;-81
2021/11/22 06:25:43;;;;;;;5.22;2.67;;;;;;;0.41;100.00;101680.66;4997762;28;20037;-79
2021/11/22 06:28:09;;;;;;;4.40;3.20;;;;;;;0.38;100.00;101682.19;4996047;28;20067;-80
2021/11/22 06:30:37;;;;;;;4.63;4.00;;;;;;;0.33;100.00;101687.13;4995244;28;20048;-82
2021/11/22 06:33:04;;;;;;;3.78;3.42;;;;;;;0.30;100.00;101693.00;4999175;28;20041;-85
2021/11/22 06:35:32;;;;;;;3.17;2.45;;;;;;;0.31;100.00;101696.44;4992568;28;20041;-79
2021/11/22 06:38:01;;;;;;;4.15;2.67;;;;;;;0.32;100.00;101704.25;4996367;28;20088;-80
2021/11/22 06:40:27;;;;;;;6.10;3.83;;;;;;;0.29;100.00;101719.56;4985146;28;20041;-78
2021/11/22 06:42:54;;;;;;;4.82;3.33;;;;;;;0.26;100.00;101715.94;4996560;28;20037;-81
2021/11/22 06:45:22;;;;;;;6.40;3.50;;;;;;;0.26;100.00;101727.16;5019145;28;20045;-80
2021/11/22 06:47:48;;;;;;;3.88;3.20;;;;;;;0.24;100.00;101728.75;4999844;28;20125;-84
2021/11/22 06:50:17;;;;;;;3.08;2.22;;;;;;;0.23;100.00;101736.41;5001155;28;20103;-79
2021/11/22 06:52:45;;;;;;;3.13;2.63;;;;;;;0.19;100.00;101731.91;4990137;28;20064;-82
2021/11/22 06:55:12;;;;;;;7.20;3.25;;;;;;;0.15;100.00;101741.16;4980347;28;20056;-80
2021/11/22 06:57:40;;;;;;;4.55;2.92;;;;;;;0.11;100.00;101747.84;4987501;28;20050;-83
2021/11/22 07:00:11;;;;;;;4.05;3.00;;;;;;;0.10;100.00;101756.34;4984726;28;20506;-83
2021/11/22 07:02:38;;;;;;;5.80;3.42;;;;;;;0.08;100.00;101757.09;4987885;28;20121;-84
2021/11/22 07:05:07;;;;;;;5.20;4.18;;;;;;;0.08;100.00;101767.38;5015331;28;20073;-82
2021/11/22 07:07:34;;;;;;;6.65;3.72;;;;;;;0.10;100.00;101770.94;4980827;28;20049;-82
2021/11/22 07:10:02;;;;;;;4.50;3.60;;;;;;;0.11;100.00;101772.72;5000195;28;20055;-84
2021/11/22 07:12:28;;;;;;;5.18;3.92;;;;;;;0.10;100.00;101778.66;4998042;28;20049;-85
2021/11/22 07:14:55;;;;;;;3.90;2.53;;;;;;;0.10;100.00;101788.97;4995497;28;20076;-88
2021/11/22 07:17:22;;;;;;;3.90;3.53;;;;;;;0.07;100.00;101786.22;5005906;28;20503;-85
2021/11/22 07:19:49;;;;;;;4.93;3.53;;;;;;;0.05;100.00;101785.25;4994247;28;20053;-84
2021/11/22 07:22:16;;;;;;;15.93;6.00;;;;;;;0.07;100.00;101791.38;4995964;28;20049;-83
2021/11/22 07:24:45;;;;;;;5.95;4.45;;;;;;;0.08;100.00;101803.44;4978621;28;20503;-81
2021/11/22 07:27:13;;;;;;;4.15;3.45;;;;;;;0.08;100.00;101795.69;5011136;28;20488;-82
2021/11/22 07:29:42;;;;;;;8.35;4.05;;;;;;;0.08;100.00;101804.34;4987857;28;20049;-82
2021/11/22 07:32:10;;;;;;;4.05;3.28;;;;;;;0.10;100.00;101804.41;5001282;28;20046;-82
2021/11/22 07:34:36;;;;;;;7.78;4.45;;;;;;;0.11;100.00;101806.19;4991382;28;20535;-81
2021/11/22 07:37:04;;;;;;;5.18;3.33;;;;;;;0.11;100.00;101816.47;4989134;28;20071;-79
2021/11/22 07:39:30;;;;;;;6.15;3.47;;;;;;;0.09;100.00;101821.56;4992407;28;20049;-80
2021/11/22 07:41:57;;;;;;;6.05;3.90;;;;;;;0.08;100.00;101824.94;4995985;28;20053;-83
2021/11/22 07:44:25;;;;;;;8.05;3.70;;;;;;;0.08;100.00;101827.50;4992471;28;20048;-80
2021/11/22 07:46:56;;;;;;;5.20;3.45;;;;;;;0.07;100.00;101830.88;4971872;28;20611;-80
2021/11/22 07:49:23;;;;;;;9.10;4.88;;;;;;;0.08;100.00;101829.19;4990773;28;20794;-81
2021/11/22 07:51:50;;;;;;;11.45;3.70;;;;;;;0.12;100.00;101844.88;4990284;28;20045;-82
2021/11/22 07:54:16;;;;;;;10.93;4.60;;;;;;;0.13;100.00;101841.50;4975560;28;20490;-85
2021/11/22 07:56:46;;;;;;;8.18;3.97;;;;;;;0.14;100.00;101848.44;4989699;28;20184;-81
2021/11/22 07:59:13;;;;;;;7.72;4.28;;;;;;;0.16;100.00;101849.38;4994219;28;20050;-84
2021/11/22 08:01:40;;;;;;;7.32;3.85;;;;;;;0.20;100.00;101842.72;4970438;28;20042;-82
2021/11/22 08:04:12;;;;;;;6.25;4.35;;;;;;;0.22;100.00;101853.09;4992214;28;20100;-84
2021/11/22 08:06:46;;;;;;;5.65;4.53;;;;;;;0.20;100.00;101855.59;5013341;28;20045;-81
2021/11/22 08:09:16;;;;;;;4.63;3.70;;;;;;;0.20;100.00;101860.75;4988043;28;20085;-81
2021/11/22 08:12:02;;;;;;;4.22;3.55;;;;;;;0.24;100.00;101872.09;5007471;28;20049;-86
2021/11/22 08:14:29;;;;;;;4.53;3.38;;;;;;;0.25;100.00;101866.09;4976007;28;20491;-80
2021/11/22 08:16:56;;;;;;;4.88;3.72;;;;;;;0.28;100.00;101872.31;4976855;28;20517;-82
2021/11/22 08:19:23;;;;;;;7.40;4.72;;;;;;;0.31;100.00;101879.31;4995295;28;20065;-86
2021/11/22 08:21:50;;;;;;;5.65;4.65;;;;;;;0.37;100.00;101884.81;4991913;28;20078;-82
2021/11/22 08:24:18;;;;;;;5.70;3.97;;;;;;;0.44;100.00;101888.59;4993358;28;20068;-82
2021/11/22 08:26:45;;;;;;;7.15;5.13;;;;;;;0.45;100.00;101882.63;5004748;28;20041;-81
2021/11/22 08:29:12;;;;;;;4.03;2.88;;;;;;;0.48;100.00;101890.50;4971671;28;20132;-82
2021/11/22 08:31:39;;;;;;;6.72;4.07;;;;;;;0.48;100.00;101888.84;4990113;28;20543;-80
2021/11/22 08:34:06;;;;;;;7.07;3.60;;;;;;;0.53;100.00;101886.47;4987650;28;20060;-86
2021/11/22 08:36:32;;;;;;;6.57;4.28;;;;;;;0.56;100.00;101890.91;4993599;28;20041;-86
2021/11/22 08:38:59;;;;;;;5.88;3.75;;;;;;;0.60;100.00;101890.25;4986787;28;20136;-81
2021/11/22 08:41:26;;;;;;;5.65;3.55;;;;;;;0.63;100.00;101903.31;4990131;28;20111;-80
2021/11/22 08:43:52;;;;;;;3.53;3.22;;;;;;;0.65;100.00;101901.69;4989981;28;20041;-82
2021/11/22 08:46:19;;;;;;;10.95;3.92;;;;;;;0.69;100.00;101907.91;4987568;28;20128;-81
2021/11/22 08:48:46;;;;;;;5.40;3.00;;;;;;;0.70;100.00;101907.09;4974711;28;20116;-85
2021/11/22 08:51:13;;;;;;;4.00;3.22;;;;;;;0.73;100.00;101903.00;5001684;28;20116;-80
2021/11/22 08:53:40;;;;;;;5.03;3.45;;;;;;;0.76;100.00;101912.56;4975102;28;21188;-81
2021/11/22 08:56:06;;;;;;;5.35;3.03;;;;;;;0.76;100.00;101912.56;5005893;28;20041;-81
2021/11/22 08:58:33;;;;;;;6.30;3.67;;;;;;;0.80;100.00;101917.94;4988110;28;20072;-83
2021/11/22 09:01:00;;;;;;;5.97;3.55;;;;;;;0.85;100.00;101925.03;5004215;28;20048;-88
2021/11/22 09:03:27;;;;;;;5.72;3.22;;;;;;;0.90;100.00;101926.16;4987289;28;20055;-88
2021/11/22 09:05:57;;;;;;;3.85;3.10;;;;;;;0.93;100.00;101928.91;4994211;28;20149;-83
2021/11/22 09:08:24;;;;;;;3.20;2.90;;;;;;;0.96;100.00;101927.34;4978091;28;20454;-78
2021/11/22 09:10:50;;;;;;;4.55;2.85;;;;;;;1.02;100.00;101931.03;4985136;28;20519;-80
2021/11/22 09:13:18;;;;;;;7.60;3.58;;;;;;;1.04;100.00;101932.88;4975799;28;20049;-82
2021/11/22 09:15:46;;;;;;;5.35;3.05;;;;;;;1.07;100.00;101935.63;4989281;28;20320;-79
2021/11/22 09:18:12;;;;;;;4.75;2.78;;;;;;;1.10;100.00;101940.94;4990872;28;20435;-80
2021/11/22 09:20:40;;;;;;;3.83;2.60;;;;;;;1.15;100.00;101943.78;4990045;28;20152;-79
2021/11/22 09:23:07;;;;;;;3.88;2.97;;;;;;;1.20;100.00;101957.78;4986576;28;20054;-81
2021/11/22 09:25:35;;;;;;;5.22;2.92;;;;;;;1.24;100.00;101951.06;4968383;28;20049;-85
2021/11/22 09:28:04;;;;;;;3.90;2.80;;;;;;;1.28;100.00;101959.03;4969093;28;21226;-83
2021/11/22 09:30:32;;;;;;;4.72;2.42;;;;;;;1.35;100.00;101961.94;4974515;28;20073;-87
2021/11/22 09:32:58;;;;;;;2.58;2.15;;;;;;;1.44;100.00;101964.97;4975857;28;20046;-83
2021/11/22 09:35:26;;;;;;;3.40;3.10;;;;;;;1.49;100.00;101958.34;4974080;28;20054;-84
2021/11/22 09:37:55;;;;;;;2.25;2.05;;;;;;;1.52;100.00;101966.22;4959342;28;20046;-87
2021/11/22 09:40:22;;;;;;;3.40;2.60;;;;;;;1.54;100.00;101963.72;4955718;28;20045;-81
2021/11/22 09:42:51;;;;;;;3.05;2.75;;;;;;;1.57;100.00;101969.91;4974196;28;20061;-83
2021/11/22 09:45:19;;;;;;;11.07;3.28;;;;;;;1.62;100.00;101968.44;4973755;28;20057;-86
2021/11/22 09:47:46;;;;;;;2.67;2.38;;;;;;;1.70;100.00;101976.56;4968319;28;20144;-85
2021/11/22 09:50:13;;;;;;;2.60;2.03;;;;;;;1.78;100.00;101982.09;4973698;28;20100;-80
2021/11/22 09:52:40;;;;;;;5.57;3.35;;;;;;;1.87;100.00;101971.34;4960337;28;20493;-82
2021/11/22 09:55:08;;;;;;;5.45;2.83;;;;;;;1.98;100.00;101971.03;4973364;28;20136;-82
2021/11/22 09:57:35;;;;;;;4.43;2.92;;;;;;;2.25;100.00;101972.25;4974192;28;20054;-87
2021/11/22 10:00:03;;;;;;;3.28;2.72;;;;;;;2.65;100.00;101968.91;4953182;28;20077;-83
2021/11/22 10:02:56;;;;;;;4.07;2.20;;;;;;;3.13;100.00;101973.59;4965211;28;20881;-87
2021/11/22 10:05:35;;;;;;;3.67;2.58;;;;;;;3.53;100.00;101974.34;4997761;28;20891;-88
2021/11/22 10:08:18;;;;;;;3.80;2.17;;;;;;;3.85;100.00;101969.63;4984331;28;20045;-89
2021/11/22 10:10:58;;;;;;;2.42;1.60;;;;;;;4.14;100.00;101974.19;4992379;28;20056;-86
2021/11/22 10:13:39;;;;;;;5.78;1.70;;;;;;;4.33;100.00;101969.75;4988544;28;20053;-86
2021/11/22 10:16:12;;;;;;;5.55;2.35;;;;;;;4.55;100.00;101974.03;4992058;28;20563;-81
2021/11/22 10:18:54;;;;;;;9.82;2.33;;;;;;;4.74;100.00;101972.97;4989755;28;20149;-83
2021/11/22 10:21:26;;;;;;;7.07;2.90;;;;;;;4.82;99.35;101975.84;5003552;28;20052;-82
2021/11/22 10:24:02;;;;;;;7.40;2.65;;;;;;;4.70;96.97;101984.06;4988228;28;20610;-81
2021/11/22 10:26:41;;;;;;;5.22;1.73;;;;;;;4.52;97.03;101988.59;5000304;28;20046;-85
2021/11/22 10:29:11;;;;;;;3.78;2.78;;;;;;;4.46;98.76;101991.84;4988533;28;20120;-87
2021/11/22 10:31:39;;;;;;;2.42;1.60;;;;;;;4.63;100.00;101990.75;4969843;28;20109;-78
2021/11/22 10:34:06;;;;;;;3.75;1.92;;;;;;;4.84;98.45;101991.47;4994571;28;20050;-88
2021/11/22 10:36:37;;;;;;;2.00;1.80;;;;;;;4.94;96.89;101985.78;5000903;28;20047;-81
2021/11/22 10:39:07;;;;;;;3.17;1.70;;;;;;;4.84;95.43;101986.28;4996432;28;20046;-81
2021/11/22 10:41:39;;;;;;;5.47;1.65;;;;;;;4.58;94.78;101979.31;4978732;28;20150;-81
2021/11/22 10:44:13;;;;;;;4.40;1.65;;;;;;;4.33;94.35;101987.00;4992615;28;20045;-83
2021/11/22 10:46:49;;;;;;;4.50;1.73;;;;;;;4.12;94.93;101990.53;4976438;28;20812;-85
2021/11/22 10:49:32;;;;;;;8.10;1.70;;;;;;;3.95;95.44;101984.66;5000261;28;20050;-86
2021/11/22 10:52:26;;;;;;;2.28;1.50;;;;;;;3.79;94.98;101978.00;4988100;28;20411;-84
2021/11/22 10:54:59;;;;;;;4.57;1.67;;;;;;;3.71;95.27;101987.19;4976714;28;20635;-80
2021/11/22 10:57:57;;;;;;;1.38;1.15;;;;;;;3.62;95.20;101985.09;5008194;28;20157;-81
2021/11/22 11:00:24;;;;;;;1.48;1.15;;;;;;;3.55;95.49;101993.44;5001531;28;20542;-79
2021/11/22 11:02:57;;;;;;;4.03;1.42;;;;;;;3.52;95.07;101990.69;4990671;28;20145;-80
2021/11/22 11:05:36;;;;;;;1.67;1.35;;;;;;;3.48;94.36;101990.59;4978595;28;20061;-79
2021/11/22 11:08:05;;;;;;;1.85;1.20;;;;;;;3.46;94.85;101999.09;5000490;28;20053;-79
2021/11/22 11:10:33;;;;;;;2.67;1.05;;;;;;;3.45;94.88;101997.34;4995541;28;20076;-82
2021/11/22 11:13:02;;;;;;;2.60;1.50;;;;;;;3.41;94.77;101990.25;4968037;28;20070;-79
2021/11/22 11:15:29;;;;;;;1.75;1.17;;;;;;;3.41;94.10;101982.50;4992117;28;20125;-86
2021/11/22 11:17:56;;;;;;;1.05;0.95;;;;;;;3.40;94.56;101985.91;5007305;28;20038;-85
2021/11/22 11:20:24;;;;;;;1.48;0.98;;;;;;;3.41;94.28;101983.38;4984773;28;20753;-82
2021/11/22 11:22:52;;;;;;;2.72;0.80;;;;;;;3.45;92.51;101986.97;4991214;28;20050;-79
2021/11/22 11:25:28;;;;;;;0.82;0.82;;;;;;;3.49;89.35;101981.09;4974383;28;20050;-83
2021/11/22 11:28:02;;;;;;;2.13;0.73;;;;;;;3.51;89.81;101983.75;4994591;28;20124;-81
2021/11/22 11:30:29;;;;;;;3.92;1.25;;;;;;;3.52;90.64;101985.53;4987647;28;20053;-81
2021/11/22 11:33:04;;;;;;;3.28;0.70;;;;;;;3.52;90.97;101990.69;4986730;28;22156;-81